Main page
METAR-TAF:

METAR-TAF

Airports :

Léopold Sédar Senghor International Airport

Dakar, Senegal

latitude: 14-44N, longitude: 017-30W, elevation: 27 m

Current weather observation

The report was made 1 hour and 5 minutes ago, at 21:00 UTC
Wind 8 kt from the North
Temperature 23°C
Humidity 78%
Pressure 1007 hPa
Visibility: 8000 m
Few clouds at a height of 1300 ft

METAR: GOOY 172100Z 36008KT 8000 FEW013 23/19 Q1007

Time: 22:05 (22:05 UTC)

Forecast

The report was made 4 hours and 35 minutes ago, at 17:30 UTC
Forecast valid from 17 at 18 UTC to 18 at 24 UTC
Wind 14 kt from the North
Visibility 10 km or more
Scattered clouds at a height of 1000 ft

TAF: GOOY 171730Z 1718/1824 35014KT 9999 SCT010

Weather observations and forecasts of more than 4000 airports (METAR and TAF reports).

The available stations are represented by yellow and red dots on the map.

Hover mouse over dot to see the name of the station.

Then click to see weather observations and forecasts.

To change the map : click on the green buttons with a black cross to zoom in, on the green button with a dash to zoom out, or on the green arrows for adjacent maps.


METAR-TAF: